sensor_id;sensor_type;location;lat;lon;timestamp;P1;durP1;ratioP1;P2;durP2;ratioP2
19364;SDS011;9818;48.382;10.850;2024-01-25T00:01:17;0.83;;;0.50;;
19364;SDS011;9818;48.382;10.850;2024-01-25T00:03:46;0.50;;;0.40;;
19364;SDS011;9818;48.382;10.850;2024-01-25T00:06:14;0.57;;;0.40;;
19364;SDS011;9818;48.382;10.850;2024-01-25T00:08:43;0.80;;;0.60;;
19364;SDS011;9818;48.382;10.850;2024-01-25T00:11:13;0.50;;;0.50;;
19364;SDS011;9818;48.382;10.850;2024-01-25T00:13:44;0.53;;;0.43;;
19364;SDS011;9818;48.382;10.850;2024-01-25T00:16:13;0.50;;;0.50;;
19364;SDS011;9818;48.382;10.850;2024-01-25T00:18:42;0.97;;;0.60;;
19364;SDS011;9818;48.382;10.850;2024-01-25T00:21:11;0.40;;;0.40;;
19364;SDS011;9818;48.382;10.850;2024-01-25T00:23:39;0.70;;;0.50;;
19364;SDS011;9818;48.382;10.850;2024-01-25T00:26:08;1.40;;;0.50;;
19364;SDS011;9818;48.382;10.850;2024-01-25T00:28:37;2.70;;;0.53;;
19364;SDS011;9818;48.382;10.850;2024-01-25T00:31:08;0.90;;;0.50;;
19364;SDS011;9818;48.382;10.850;2024-01-25T00:33:37;0.40;;;0.40;;
19364;SDS011;9818;48.382;10.850;2024-01-25T00:36:06;1.20;;;0.60;;
19364;SDS011;9818;48.382;10.850;2024-01-25T00:38:36;0.73;;;0.60;;
19364;SDS011;9818;48.382;10.850;2024-01-25T00:41:05;0.47;;;0.47;;
19364;SDS011;9818;48.382;10.850;2024-01-25T00:43:38;1.43;;;0.77;;
19364;SDS011;9818;48.382;10.850;2024-01-25T00:46:10;0.87;;;0.40;;
19364;SDS011;9818;48.382;10.850;2024-01-25T00:48:40;1.77;;;0.50;;
19364;SDS011;9818;48.382;10.850;2024-01-25T00:51:11;1.47;;;0.50;;
19364;SDS011;9818;48.382;10.850;2024-01-25T00:53:43;1.07;;;0.53;;
19364;SDS011;9818;48.382;10.850;2024-01-25T00:56:12;0.50;;;0.40;;
19364;SDS011;9818;48.382;10.850;2024-01-25T00:58:42;1.17;;;0.70;;
19364;SDS011;9818;48.382;10.850;2024-01-25T01:01:14;0.87;;;0.50;;
19364;SDS011;9818;48.382;10.850;2024-01-25T01:03:43;0.80;;;0.50;;
19364;SDS011;9818;48.382;10.850;2024-01-25T01:06:17;3.83;;;0.70;;
19364;SDS011;9818;48.382;10.850;2024-01-25T01:08:47;1.00;;;0.60;;
19364;SDS011;9818;48.382;10.850;2024-01-25T01:11:16;1.10;;;0.57;;
19364;SDS011;9818;48.382;10.850;2024-01-25T01:13:45;0.77;;;0.60;;
19364;SDS011;9818;48.382;10.850;2024-01-25T01:16:17;0.50;;;0.50;;
19364;SDS011;9818;48.382;10.850;2024-01-25T01:18:46;0.60;;;0.50;;
19364;SDS011;9818;48.382;10.850;2024-01-25T01:21:14;0.50;;;0.50;;
19364;SDS011;9818;48.382;10.850;2024-01-25T01:23:43;0.60;;;0.50;;
19364;SDS011;9818;48.382;10.850;2024-01-25T01:26:12;0.90;;;0.73;;
19364;SDS011;9818;48.382;10.850;2024-01-25T01:28:40;0.70;;;0.50;;
19364;SDS011;9818;48.382;10.850;2024-01-25T01:31:09;0.60;;;0.50;;
19364;SDS011;9818;48.382;10.850;2024-01-25T01:33:40;0.80;;;0.60;;
19364;SDS011;9818;48.382;10.850;2024-01-25T01:36:09;0.77;;;0.50;;
19364;SDS011;9818;48.382;10.850;2024-01-25T01:38:38;0.67;;;0.60;;
19364;SDS011;9818;48.382;10.850;2024-01-25T01:41:07;0.60;;;0.60;;
19364;SDS011;9818;48.382;10.850;2024-01-25T01:43:38;1.20;;;0.70;;
19364;SDS011;9818;48.382;10.850;2024-01-25T01:46:09;0.60;;;0.60;;
19364;SDS011;9818;48.382;10.850;2024-01-25T01:48:41;0.60;;;0.50;;
19364;SDS011;9818;48.382;10.850;2024-01-25T01:51:10;0.60;;;0.60;;
19364;SDS011;9818;48.382;10.850;2024-01-25T01:53:39;0.90;;;0.60;;
19364;SDS011;9818;48.382;10.850;2024-01-25T01:56:08;0.73;;;0.50;;
19364;SDS011;9818;48.382;10.850;2024-01-25T01:58:38;0.60;;;0.50;;
19364;SDS011;9818;48.382;10.850;2024-01-25T02:01:07;0.97;;;0.47;;
19364;SDS011;9818;48.382;10.850;2024-01-25T02:03:35;0.60;;;0.60;;
19364;SDS011;9818;48.382;10.850;2024-01-25T02:06:04;0.70;;;0.50;;
19364;SDS011;9818;48.382;10.850;2024-01-25T02:08:34;0.50;;;0.50;;
19364;SDS011;9818;48.382;10.850;2024-01-25T02:11:03;1.17;;;0.40;;
19364;SDS011;9818;48.382;10.850;2024-01-25T02:13:33;0.50;;;0.50;;
19364;SDS011;9818;48.382;10.850;2024-01-25T02:16:01;1.53;;;1.00;;
19364;SDS011;9818;48.382;10.850;2024-01-25T02:18:31;0.57;;;0.50;;
19364;SDS011;9818;48.382;10.850;2024-01-25T02:21:00;1.13;;;0.73;;
19364;SDS011;9818;48.382;10.850;2024-01-25T02:23:33;0.63;;;0.60;;
19364;SDS011;9818;48.382;10.850;2024-01-25T02:26:02;0.40;;;0.40;;
19364;SDS011;9818;48.382;10.850;2024-01-25T02:28:31;0.90;;;0.50;;
19364;SDS011;9818;48.382;10.850;2024-01-25T02:31:03;1.47;;;0.67;;
19364;SDS011;9818;48.382;10.850;2024-01-25T02:33:32;0.83;;;0.50;;
19364;SDS011;9818;48.382;10.850;2024-01-25T02:36:00;0.97;;;0.77;;
19364;SDS011;9818;48.382;10.850;2024-01-25T02:38:32;1.20;;;0.43;;
19364;SDS011;9818;48.382;10.850;2024-01-25T02:41:00;1.73;;;0.60;;
19364;SDS011;9818;48.382;10.850;2024-01-25T02:43:30;0.87;;;0.50;;
19364;SDS011;9818;48.382;10.850;2024-01-25T02:46:01;0.77;;;0.53;;
19364;SDS011;9818;48.382;10.850;2024-01-25T02:48:30;1.17;;;0.60;;
19364;SDS011;9818;48.382;10.850;2024-01-25T02:50:59;0.70;;;0.43;;
19364;SDS011;9818;48.382;10.850;2024-01-25T02:53:28;1.90;;;0.80;;
19364;SDS011;9818;48.382;10.850;2024-01-25T02:55:59;1.27;;;0.53;;
19364;SDS011;9818;48.382;10.850;2024-01-25T02:58:28;1.27;;;0.70;;
19364;SDS011;9818;48.382;10.850;2024-01-25T03:00:57;0.63;;;0.50;;
19364;SDS011;9818;48.382;10.850;2024-01-25T03:03:25;0.37;;;0.37;;
19364;SDS011;9818;48.382;10.850;2024-01-25T03:05:54;2.13;;;0.60;;
19364;SDS011;9818;48.382;10.850;2024-01-25T03:08:23;0.73;;;0.43;;
19364;SDS011;9818;48.382;10.850;2024-01-25T03:10:54;1.23;;;0.73;;
19364;SDS011;9818;48.382;10.850;2024-01-25T03:13:23;0.60;;;0.60;;
19364;SDS011;9818;48.382;10.850;2024-01-25T03:15:52;1.57;;;0.50;;
19364;SDS011;9818;48.382;10.850;2024-01-25T03:18:20;1.37;;;0.90;;
19364;SDS011;9818;48.382;10.850;2024-01-25T03:20:49;1.60;;;0.60;;
19364;SDS011;9818;48.382;10.850;2024-01-25T03:23:18;1.40;;;0.70;;
19364;SDS011;9818;48.382;10.850;2024-01-25T03:25:46;0.80;;;0.60;;
19364;SDS011;9818;48.382;10.850;2024-01-25T03:28:18;0.90;;;0.50;;
19364;SDS011;9818;48.382;10.850;2024-01-25T03:30:46;1.17;;;0.60;;
19364;SDS011;9818;48.382;10.850;2024-01-25T03:33:15;0.87;;;0.60;;
19364;SDS011;9818;48.382;10.850;2024-01-25T03:35:44;1.70;;;0.70;;
19364;SDS011;9818;48.382;10.850;2024-01-25T03:38:12;0.60;;;0.60;;
19364;SDS011;9818;48.382;10.850;2024-01-25T03:40:44;1.17;;;0.60;;
19364;SDS011;9818;48.382;10.850;2024-01-25T03:43:13;0.63;;;0.50;;
19364;SDS011;9818;48.382;10.850;2024-01-25T03:45:44;0.50;;;0.50;;
19364;SDS011;9818;48.382;10.850;2024-01-25T03:48:13;0.40;;;0.40;;
19364;SDS011;9818;48.382;10.850;2024-01-25T03:50:41;0.77;;;0.50;;
19364;SDS011;9818;48.382;10.850;2024-01-25T03:53:11;1.00;;;0.60;;
19364;SDS011;9818;48.382;10.850;2024-01-25T03:55:40;0.60;;;0.53;;
19364;SDS011;9818;48.382;10.850;2024-01-25T03:58:09;1.83;;;0.80;;
19364;SDS011;9818;48.382;10.850;2024-01-25T04:00:38;1.40;;;0.57;;
19364;SDS011;9818;48.382;10.850;2024-01-25T04:03:09;0.50;;;0.50;;
19364;SDS011;9818;48.382;10.850;2024-01-25T04:05:38;0.60;;;0.50;;
19364;SDS011;9818;48.382;10.850;2024-01-25T04:08:07;0.70;;;0.60;;
19364;SDS011;9818;48.382;10.850;2024-01-25T04:10:36;1.10;;;0.70;;
19364;SDS011;9818;48.382;10.850;2024-01-25T04:13:04;0.70;;;0.60;;
19364;SDS011;9818;48.382;10.850;2024-01-25T04:15:33;0.63;;;0.50;;
19364;SDS011;9818;48.382;10.850;2024-01-25T04:18:02;0.93;;;0.60;;
19364;SDS011;9818;48.382;10.850;2024-01-25T04:20:33;0.50;;;0.50;;
19364;SDS011;9818;48.382;10.850;2024-01-25T04:23:02;0.80;;;0.60;;
19364;SDS011;9818;48.382;10.850;2024-01-25T04:25:31;0.83;;;0.57;;
19364;SDS011;9818;48.382;10.850;2024-01-25T04:28:00;0.83;;;0.60;;
19364;SDS011;9818;48.382;10.850;2024-01-25T04:30:29;1.20;;;0.60;;
19364;SDS011;9818;48.382;10.850;2024-01-25T04:32:57;0.63;;;0.50;;
19364;SDS011;9818;48.382;10.850;2024-01-25T04:35:26;1.17;;;0.57;;
19364;SDS011;9818;48.382;10.850;2024-01-25T04:37:59;0.90;;;0.60;;
19364;SDS011;9818;48.382;10.850;2024-01-25T04:40:28;1.10;;;0.70;;
19364;SDS011;9818;48.382;10.850;2024-01-25T04:42:56;1.13;;;0.70;;
19364;SDS011;9818;48.382;10.850;2024-01-25T04:45:25;1.33;;;0.63;;
19364;SDS011;9818;48.382;10.850;2024-01-25T04:47:54;0.97;;;0.70;;
19364;SDS011;9818;48.382;10.850;2024-01-25T04:50:23;0.53;;;0.50;;
19364;SDS011;9818;48.382;10.850;2024-01-25T04:52:51;0.83;;;0.57;;
19364;SDS011;9818;48.382;10.850;2024-01-25T04:55:23;0.93;;;0.50;;
19364;SDS011;9818;48.382;10.850;2024-01-25T04:57:51;0.60;;;0.50;;
19364;SDS011;9818;48.382;10.850;2024-01-25T05:00:21;0.70;;;0.60;;
19364;SDS011;9818;48.382;10.850;2024-01-25T05:02:50;0.87;;;0.57;;
19364;SDS011;9818;48.382;10.850;2024-01-25T05:05:19;1.10;;;0.60;;
19364;SDS011;9818;48.382;10.850;2024-01-25T05:07:47;0.80;;;0.60;;
19364;SDS011;9818;48.382;10.850;2024-01-25T05:10:16;0.90;;;0.60;;
19364;SDS011;9818;48.382;10.850;2024-01-25T05:12:47;1.00;;;0.60;;
19364;SDS011;9818;48.382;10.850;2024-01-25T05:15:16;1.13;;;0.70;;
19364;SDS011;9818;48.382;10.850;2024-01-25T05:17:45;0.50;;;0.50;;
19364;SDS011;9818;48.382;10.850;2024-01-25T05:20:13;1.27;;;0.70;;
19364;SDS011;9818;48.382;10.850;2024-01-25T05:22:43;1.03;;;0.57;;
19364;SDS011;9818;48.382;10.850;2024-01-25T05:25:12;1.10;;;0.70;;
19364;SDS011;9818;48.382;10.850;2024-01-25T05:27:40;0.57;;;0.50;;
19364;SDS011;9818;48.382;10.850;2024-01-25T05:30:12;0.80;;;0.50;;
19364;SDS011;9818;48.382;10.850;2024-01-25T05:32:42;1.17;;;0.60;;
19364;SDS011;9818;48.382;10.850;2024-01-25T05:35:13;1.23;;;0.60;;
19364;SDS011;9818;48.382;10.850;2024-01-25T05:37:42;0.87;;;0.60;;
19364;SDS011;9818;48.382;10.850;2024-01-25T05:40:11;0.87;;;0.70;;
19364;SDS011;9818;48.382;10.850;2024-01-25T05:42:40;0.80;;;0.67;;
19364;SDS011;9818;48.382;10.850;2024-01-25T05:45:12;1.37;;;0.80;;
19364;SDS011;9818;48.382;10.850;2024-01-25T05:47:40;0.60;;;0.60;;
19364;SDS011;9818;48.382;10.850;2024-01-25T05:50:09;1.03;;;0.50;;
19364;SDS011;9818;48.382;10.850;2024-01-25T05:52:38;0.77;;;0.53;;
19364;SDS011;9818;48.382;10.850;2024-01-25T05:55:07;0.90;;;0.73;;
19364;SDS011;9818;48.382;10.850;2024-01-25T05:57:36;0.87;;;0.70;;
19364;SDS011;9818;48.382;10.850;2024-01-25T06:00:05;0.73;;;0.60;;
19364;SDS011;9818;48.382;10.850;2024-01-25T06:02:39;0.90;;;0.67;;
19364;SDS011;9818;48.382;10.850;2024-01-25T06:05:08;1.00;;;0.50;;
19364;SDS011;9818;48.382;10.850;2024-01-25T06:07:37;0.77;;;0.50;;
19364;SDS011;9818;48.382;10.850;2024-01-25T06:10:06;0.80;;;0.50;;
19364;SDS011;9818;48.382;10.850;2024-01-25T06:12:35;0.63;;;0.60;;
19364;SDS011;9818;48.382;10.850;2024-01-25T06:15:05;0.43;;;0.40;;
19364;SDS011;9818;48.382;10.850;2024-01-25T06:17:35;1.43;;;0.50;;
19364;SDS011;9818;48.382;10.850;2024-01-25T06:20:07;0.80;;;0.70;;
19364;SDS011;9818;48.382;10.850;2024-01-25T06:22:36;1.33;;;0.60;;
19364;SDS011;9818;48.382;10.850;2024-01-25T06:25:05;1.00;;;0.60;;
19364;SDS011;9818;48.382;10.850;2024-01-25T06:27:34;0.47;;;0.47;;
19364;SDS011;9818;48.382;10.850;2024-01-25T06:30:03;0.60;;;0.60;;
19364;SDS011;9818;48.382;10.850;2024-01-25T06:32:33;1.47;;;0.57;;
19364;SDS011;9818;48.382;10.850;2024-01-25T06:35:03;1.17;;;0.70;;
19364;SDS011;9818;48.382;10.850;2024-01-25T06:37:35;0.90;;;0.70;;
19364;SDS011;9818;48.382;10.850;2024-01-25T06:40:04;0.67;;;0.40;;
19364;SDS011;9818;48.382;10.850;2024-01-25T06:42:34;0.87;;;0.60;;
19364;SDS011;9818;48.382;10.850;2024-01-25T06:45:03;0.97;;;0.73;;
19364;SDS011;9818;48.382;10.850;2024-01-25T06:47:32;1.03;;;0.70;;
19364;SDS011;9818;48.382;10.850;2024-01-25T06:50:01;1.20;;;0.80;;
19364;SDS011;9818;48.382;10.850;2024-01-25T06:52:32;1.30;;;0.70;;
19364;SDS011;9818;48.382;10.850;2024-01-25T06:55:01;0.70;;;0.60;;
19364;SDS011;9818;48.382;10.850;2024-01-25T06:57:30;1.40;;;0.80;;
19364;SDS011;9818;48.382;10.850;2024-01-25T06:59:59;1.37;;;0.80;;
19364;SDS011;9818;48.382;10.850;2024-01-25T07:02:28;1.17;;;0.70;;
19364;SDS011;9818;48.382;10.850;2024-01-25T07:04:56;1.70;;;0.70;;
19364;SDS011;9818;48.382;10.850;2024-01-25T07:07:26;0.93;;;0.60;;
19364;SDS011;9818;48.382;10.850;2024-01-25T07:09:59;1.53;;;0.83;;
19364;SDS011;9818;48.382;10.850;2024-01-25T07:12:29;1.13;;;0.67;;
19364;SDS011;9818;48.382;10.850;2024-01-25T07:14:58;1.50;;;0.80;;
19364;SDS011;9818;48.382;10.850;2024-01-25T07:17:27;0.60;;;0.60;;
19364;SDS011;9818;48.382;10.850;2024-01-25T07:19:55;1.20;;;0.60;;
19364;SDS011;9818;48.382;10.850;2024-01-25T07:22:24;1.33;;;0.60;;
19364;SDS011;9818;48.382;10.850;2024-01-25T07:24:53;1.60;;;0.80;;
19364;SDS011;9818;48.382;10.850;2024-01-25T07:27:24;0.67;;;0.60;;
19364;SDS011;9818;48.382;10.850;2024-01-25T07:29:53;1.57;;;0.70;;
19364;SDS011;9818;48.382;10.850;2024-01-25T07:32:24;1.20;;;0.50;;
19364;SDS011;9818;48.382;10.850;2024-01-25T07:34:53;1.13;;;0.63;;
19364;SDS011;9818;48.382;10.850;2024-01-25T07:37:21;1.37;;;0.67;;
19364;SDS011;9818;48.382;10.850;2024-01-25T07:39:50;1.63;;;0.70;;
19364;SDS011;9818;48.382;10.850;2024-01-25T07:42:19;0.97;;;0.70;;
19364;SDS011;9818;48.382;10.850;2024-01-25T07:44:50;0.63;;;0.50;;
19364;SDS011;9818;48.382;10.850;2024-01-25T07:47:19;0.50;;;0.50;;
19364;SDS011;9818;48.382;10.850;2024-01-25T07:49:47;1.63;;;0.60;;
19364;SDS011;9818;48.382;10.850;2024-01-25T07:52:16;1.67;;;0.80;;
19364;SDS011;9818;48.382;10.850;2024-01-25T07:54:45;0.73;;;0.70;;
19364;SDS011;9818;48.382;10.850;2024-01-25T07:57:14;1.10;;;0.70;;
19364;SDS011;9818;48.382;10.850;2024-01-25T07:59:42;0.80;;;0.70;;
19364;SDS011;9818;48.382;10.850;2024-01-25T08:02:14;0.60;;;0.60;;
19364;SDS011;9818;48.382;10.850;2024-01-25T08:04:43;0.53;;;0.53;;
19364;SDS011;9818;48.382;10.850;2024-01-25T08:07:11;0.50;;;0.40;;
19364;SDS011;9818;48.382;10.850;2024-01-25T08:09:40;0.70;;;0.70;;
19364;SDS011;9818;48.382;10.850;2024-01-25T08:12:09;0.93;;;0.57;;
19364;SDS011;9818;48.382;10.850;2024-01-25T08:14:37;0.90;;;0.70;;
19364;SDS011;9818;48.382;10.850;2024-01-25T08:17:08;0.93;;;0.60;;
19364;SDS011;9818;48.382;10.850;2024-01-25T08:19:39;0.97;;;0.60;;
19364;SDS011;9818;48.382;10.850;2024-01-25T08:22:08;1.93;;;0.60;;
19364;SDS011;9818;48.382;10.850;2024-01-25T08:24:38;1.00;;;0.77;;
19364;SDS011;9818;48.382;10.850;2024-01-25T08:27:07;0.87;;;0.73;;
19364;SDS011;9818;48.382;10.850;2024-01-25T08:29:35;0.60;;;0.50;;
19364;SDS011;9818;48.382;10.850;2024-01-25T08:32:06;0.80;;;0.60;;
19364;SDS011;9818;48.382;10.850;2024-01-25T08:34:34;1.07;;;0.70;;
19364;SDS011;9818;48.382;10.850;2024-01-25T08:37:06;1.13;;;0.50;;
19364;SDS011;9818;48.382;10.850;2024-01-25T08:39:35;0.77;;;0.60;;
19364;SDS011;9818;48.382;10.850;2024-01-25T08:42:04;0.70;;;0.60;;
19364;SDS011;9818;48.382;10.850;2024-01-25T08:44:32;1.67;;;0.80;;
19364;SDS011;9818;48.382;10.850;2024-01-25T08:47:01;0.80;;;0.70;;
19364;SDS011;9818;48.382;10.850;2024-01-25T08:49:30;1.03;;;0.67;;
19364;SDS011;9818;48.382;10.850;2024-01-25T08:51:59;0.60;;;0.60;;
19364;SDS011;9818;48.382;10.850;2024-01-25T08:54:30;1.07;;;0.60;;
19364;SDS011;9818;48.382;10.850;2024-01-25T08:56:59;0.93;;;0.73;;
19364;SDS011;9818;48.382;10.850;2024-01-25T08:59:27;2.03;;;0.70;;
19364;SDS011;9818;48.382;10.850;2024-01-25T09:01:58;0.50;;;0.50;;
19364;SDS011;9818;48.382;10.850;2024-01-25T09:04:26;0.87;;;0.60;;
19364;SDS011;9818;48.382;10.850;2024-01-25T09:06:55;1.70;;;0.90;;
19364;SDS011;9818;48.382;10.850;2024-01-25T09:09:24;1.20;;;0.70;;
19364;SDS011;9818;48.382;10.850;2024-01-25T09:11:55;1.13;;;0.70;;
19364;SDS011;9818;48.382;10.850;2024-01-25T09:14:24;2.10;;;0.80;;
19364;SDS011;9818;48.382;10.850;2024-01-25T09:16:53;1.20;;;0.73;;
19364;SDS011;9818;48.382;10.850;2024-01-25T09:19:22;1.97;;;0.77;;
19364;SDS011;9818;48.382;10.850;2024-01-25T09:21:50;1.50;;;0.80;;
19364;SDS011;9818;48.382;10.850;2024-01-25T09:24:20;1.30;;;0.80;;
19364;SDS011;9818;48.382;10.850;2024-01-25T09:26:49;2.70;;;0.80;;
19364;SDS011;9818;48.382;10.850;2024-01-25T09:29:20;2.30;;;1.00;;
19364;SDS011;9818;48.382;10.850;2024-01-25T09:31:49;1.13;;;0.70;;
19364;SDS011;9818;48.382;10.850;2024-01-25T09:34:18;1.37;;;0.90;;
19364;SDS011;9818;48.382;10.850;2024-01-25T09:36:46;2.87;;;0.60;;
19364;SDS011;9818;48.382;10.850;2024-01-25T09:39:15;0.83;;;0.63;;
19364;SDS011;9818;48.382;10.850;2024-01-25T09:41:44;1.73;;;0.87;;
19364;SDS011;9818;48.382;10.850;2024-01-25T09:44:14;1.00;;;0.70;;
19364;SDS011;9818;48.382;10.850;2024-01-25T09:46:45;2.10;;;0.80;;
19364;SDS011;9818;48.382;10.850;2024-01-25T09:49:14;1.83;;;0.80;;
19364;SDS011;9818;48.382;10.850;2024-01-25T09:51:43;0.70;;;0.67;;
19364;SDS011;9818;48.382;10.850;2024-01-25T09:54:13;0.83;;;0.67;;
19364;SDS011;9818;48.382;10.850;2024-01-25T09:56:43;0.93;;;0.60;;
19364;SDS011;9818;48.382;10.850;2024-01-25T09:59:12;1.53;;;0.90;;
19364;SDS011;9818;48.382;10.850;2024-01-25T10:01:45;3.17;;;0.80;;
19364;SDS011;9818;48.382;10.850;2024-01-25T10:04:14;1.90;;;0.97;;
19364;SDS011;9818;48.382;10.850;2024-01-25T10:06:47;1.37;;;0.93;;
19364;SDS011;9818;48.382;10.850;2024-01-25T10:09:15;2.10;;;0.70;;
19364;SDS011;9818;48.382;10.850;2024-01-25T10:11:44;1.30;;;0.80;;
19364;SDS011;9818;48.382;10.850;2024-01-25T10:14:13;2.33;;;0.90;;
19364;SDS011;9818;48.382;10.850;2024-01-25T10:16:44;1.33;;;0.87;;
19364;SDS011;9818;48.382;10.850;2024-01-25T10:19:13;1.63;;;0.70;;
19364;SDS011;9818;48.382;10.850;2024-01-25T10:21:42;1.73;;;0.73;;
19364;SDS011;9818;48.382;10.850;2024-01-25T10:24:11;3.83;;;1.03;;
19364;SDS011;9818;48.382;10.850;2024-01-25T10:26:40;5.23;;;1.27;;
19364;SDS011;9818;48.382;10.850;2024-01-25T10:29:09;2.70;;;1.00;;
19364;SDS011;9818;48.382;10.850;2024-01-25T10:31:39;2.93;;;1.00;;
19364;SDS011;9818;48.382;10.850;2024-01-25T10:34:11;3.17;;;0.90;;
19364;SDS011;9818;48.382;10.850;2024-01-25T10:36:42;2.37;;;1.00;;
19364;SDS011;9818;48.382;10.850;2024-01-25T10:39:12;4.10;;;1.00;;
19364;SDS011;9818;48.382;10.850;2024-01-25T10:41:42;3.37;;;0.80;;
19364;SDS011;9818;48.382;10.850;2024-01-25T10:44:15;4.50;;;1.17;;
19364;SDS011;9818;48.382;10.850;2024-01-25T10:46:45;2.70;;;0.90;;
19364;SDS011;9818;48.382;10.850;2024-01-25T10:49:18;2.97;;;1.00;;
19364;SDS011;9818;48.382;10.850;2024-01-25T10:51:47;2.50;;;1.03;;
19364;SDS011;9818;48.382;10.850;2024-01-25T10:54:16;6.90;;;1.30;;
19364;SDS011;9818;48.382;10.850;2024-01-25T10:56:46;2.73;;;1.00;;
19364;SDS011;9818;48.382;10.850;2024-01-25T10:59:15;2.13;;;1.00;;
19364;SDS011;9818;48.382;10.850;2024-01-25T11:01:45;2.37;;;1.00;;
19364;SDS011;9818;48.382;10.850;2024-01-25T11:04:14;2.20;;;0.90;;
19364;SDS011;9818;48.382;10.850;2024-01-25T11:06:47;2.83;;;1.00;;
19364;SDS011;9818;48.382;10.850;2024-01-25T11:09:16;2.20;;;0.83;;
19364;SDS011;9818;48.382;10.850;2024-01-25T11:11:47;3.23;;;1.07;;
19364;SDS011;9818;48.382;10.850;2024-01-25T11:14:16;1.70;;;1.00;;
19364;SDS011;9818;48.382;10.850;2024-01-25T11:16:47;3.03;;;1.13;;
19364;SDS011;9818;48.382;10.850;2024-01-25T11:19:19;3.77;;;0.90;;
19364;SDS011;9818;48.382;10.850;2024-01-25T11:21:50;1.77;;;0.90;;
19364;SDS011;9818;48.382;10.850;2024-01-25T11:24:21;3.20;;;1.40;;
19364;SDS011;9818;48.382;10.850;2024-01-25T11:26:51;2.37;;;1.00;;
19364;SDS011;9818;48.382;10.850;2024-01-25T11:29:21;2.77;;;0.90;;
19364;SDS011;9818;48.382;10.850;2024-01-25T11:31:52;1.40;;;1.00;;
19364;SDS011;9818;48.382;10.850;2024-01-25T11:34:23;2.03;;;0.90;;
19364;SDS011;9818;48.382;10.850;2024-01-25T11:36:52;1.77;;;0.83;;
19364;SDS011;9818;48.382;10.850;2024-01-25T11:39:22;5.43;;;1.40;;
19364;SDS011;9818;48.382;10.850;2024-01-25T11:41:51;2.40;;;1.23;;
19364;SDS011;9818;48.382;10.850;2024-01-25T11:44:20;3.77;;;1.13;;
19364;SDS011;9818;48.382;10.850;2024-01-25T11:46:50;2.30;;;1.10;;
19364;SDS011;9818;48.382;10.850;2024-01-25T11:49:25;4.33;;;1.30;;
19364;SDS011;9818;48.382;10.850;2024-01-25T11:51:54;2.40;;;1.20;;
19364;SDS011;9818;48.382;10.850;2024-01-25T11:54:23;3.73;;;1.50;;
19364;SDS011;9818;48.382;10.850;2024-01-25T11:56:52;14.73;;;3.43;;
19364;SDS011;9818;48.382;10.850;2024-01-25T11:59:21;10.13;;;2.57;;
19364;SDS011;9818;48.382;10.850;2024-01-25T12:01:49;9.37;;;3.07;;
19364;SDS011;9818;48.382;10.850;2024-01-25T12:04:18;8.17;;;2.90;;
19364;SDS011;9818;48.382;10.850;2024-01-25T12:06:49;12.57;;;3.53;;
19364;SDS011;9818;48.382;10.850;2024-01-25T12:09:18;10.20;;;3.20;;
19364;SDS011;9818;48.382;10.850;2024-01-25T12:11:49;11.17;;;3.47;;
19364;SDS011;9818;48.382;10.850;2024-01-25T12:14:18;8.67;;;3.77;;
19364;SDS011;9818;48.382;10.850;2024-01-25T12:16:47;11.23;;;3.10;;
19364;SDS011;9818;48.382;10.850;2024-01-25T12:19:15;13.33;;;3.37;;
19364;SDS011;9818;48.382;10.850;2024-01-25T12:21:44;19.63;;;4.43;;
19364;SDS011;9818;48.382;10.850;2024-01-25T12:24:16;11.83;;;3.87;;
19364;SDS011;9818;48.382;10.850;2024-01-25T12:26:44;11.97;;;3.20;;
19364;SDS011;9818;48.382;10.850;2024-01-25T12:29:15;8.90;;;3.60;;
19364;SDS011;9818;48.382;10.850;2024-01-25T12:31:43;9.57;;;3.23;;
19364;SDS011;9818;48.382;10.850;2024-01-25T12:34:15;11.10;;;3.23;;
19364;SDS011;9818;48.382;10.850;2024-01-25T12:36:44;9.57;;;2.83;;
19364;SDS011;9818;48.382;10.850;2024-01-25T12:39:12;10.80;;;2.97;;
19364;SDS011;9818;48.382;10.850;2024-01-25T12:41:44;9.33;;;2.90;;
19364;SDS011;9818;48.382;10.850;2024-01-25T12:44:13;8.00;;;2.63;;
19364;SDS011;9818;48.382;10.850;2024-01-25T12:46:41;7.77;;;2.80;;
19364;SDS011;9818;48.382;10.850;2024-01-25T12:49:10;10.17;;;2.77;;
19364;SDS011;9818;48.382;10.850;2024-01-25T12:51:39;6.37;;;2.73;;
19364;SDS011;9818;48.382;10.850;2024-01-25T12:54:08;8.23;;;2.60;;
19364;SDS011;9818;48.382;10.850;2024-01-25T12:56:40;10.33;;;3.47;;
19364;SDS011;9818;48.382;10.850;2024-01-25T12:59:08;6.47;;;2.30;;
19364;SDS011;9818;48.382;10.850;2024-01-25T13:01:37;8.33;;;2.47;;
19364;SDS011;9818;48.382;10.850;2024-01-25T13:04:06;9.30;;;2.53;;
19364;SDS011;9818;48.382;10.850;2024-01-25T13:06:34;7.03;;;2.40;;
19364;SDS011;9818;48.382;10.850;2024-01-25T13:09:04;8.80;;;2.90;;
19364;SDS011;9818;48.382;10.850;2024-01-25T13:11:33;6.67;;;2.90;;
19364;SDS011;9818;48.382;10.850;2024-01-25T13:14:04;9.23;;;2.50;;
19364;SDS011;9818;48.382;10.850;2024-01-25T13:16:33;8.17;;;3.03;;
19364;SDS011;9818;48.382;10.850;2024-01-25T13:19:01;10.67;;;2.60;;
19364;SDS011;9818;48.382;10.850;2024-01-25T13:21:30;8.87;;;2.23;;
19364;SDS011;9818;48.382;10.850;2024-01-25T13:23:59;9.03;;;2.70;;
19364;SDS011;9818;48.382;10.850;2024-01-25T13:26:28;8.97;;;2.90;;
19364;SDS011;9818;48.382;10.850;2024-01-25T13:28:57;5.40;;;2.30;;
19364;SDS011;9818;48.382;10.850;2024-01-25T13:31:28;8.13;;;2.63;;
19364;SDS011;9818;48.382;10.850;2024-01-25T13:33:57;7.23;;;2.60;;
19364;SDS011;9818;48.382;10.850;2024-01-25T13:36:25;4.87;;;2.30;;
19364;SDS011;9818;48.382;10.850;2024-01-25T13:38:54;6.47;;;2.10;;
19364;SDS011;9818;48.382;10.850;2024-01-25T13:41:23;7.50;;;2.43;;
19364;SDS011;9818;48.382;10.850;2024-01-25T13:43:51;9.10;;;2.47;;
19364;SDS011;9818;48.382;10.850;2024-01-25T13:46:20;6.73;;;2.37;;
19364;SDS011;9818;48.382;10.850;2024-01-25T13:48:51;6.20;;;2.27;;
19364;SDS011;9818;48.382;10.850;2024-01-25T13:51:20;9.67;;;2.30;;
19364;SDS011;9818;48.382;10.850;2024-01-25T13:53:49;4.20;;;1.93;;
19364;SDS011;9818;48.382;10.850;2024-01-25T13:56:17;3.63;;;1.80;;
19364;SDS011;9818;48.382;10.850;2024-01-25T13:58:46;6.37;;;2.03;;
19364;SDS011;9818;48.382;10.850;2024-01-25T14:01:15;6.13;;;1.97;;
19364;SDS011;9818;48.382;10.850;2024-01-25T14:03:43;8.33;;;2.40;;
19364;SDS011;9818;48.382;10.850;2024-01-25T14:06:15;7.73;;;2.10;;
19364;SDS011;9818;48.382;10.850;2024-01-25T14:08:43;5.50;;;2.10;;
19364;SDS011;9818;48.382;10.850;2024-01-25T14:11:12;4.87;;;1.80;;
19364;SDS011;9818;48.382;10.850;2024-01-25T14:13:41;5.27;;;1.80;;
19364;SDS011;9818;48.382;10.850;2024-01-25T14:16:10;3.93;;;1.60;;
19364;SDS011;9818;48.382;10.850;2024-01-25T14:18:42;5.93;;;1.90;;
19364;SDS011;9818;48.382;10.850;2024-01-25T14:21:11;6.07;;;2.13;;
19364;SDS011;9818;48.382;10.850;2024-01-25T14:23:42;3.53;;;1.70;;
19364;SDS011;9818;48.382;10.850;2024-01-25T14:26:11;3.70;;;1.63;;
19364;SDS011;9818;48.382;10.850;2024-01-25T14:28:39;4.47;;;2.07;;
19364;SDS011;9818;48.382;10.850;2024-01-25T14:31:08;7.17;;;1.80;;
19364;SDS011;9818;48.382;10.850;2024-01-25T14:33:37;4.03;;;1.63;;
19364;SDS011;9818;48.382;10.850;2024-01-25T14:36:06;2.73;;;1.50;;
19364;SDS011;9818;48.382;10.850;2024-01-25T14:38:35;5.80;;;1.90;;
19364;SDS011;9818;48.382;10.850;2024-01-25T14:41:06;5.33;;;2.10;;
19364;SDS011;9818;48.382;10.850;2024-01-25T14:43:37;5.20;;;2.00;;
19364;SDS011;9818;48.382;10.850;2024-01-25T14:46:06;3.57;;;1.70;;
19364;SDS011;9818;48.382;10.850;2024-01-25T14:48:35;3.70;;;1.57;;
19364;SDS011;9818;48.382;10.850;2024-01-25T14:51:04;3.57;;;1.80;;
19364;SDS011;9818;48.382;10.850;2024-01-25T14:53:33;4.70;;;1.73;;
19364;SDS011;9818;48.382;10.850;2024-01-25T14:56:02;4.40;;;1.90;;
19364;SDS011;9818;48.382;10.850;2024-01-25T14:58:34;4.47;;;1.50;;
19364;SDS011;9818;48.382;10.850;2024-01-25T15:01:03;3.17;;;1.33;;